Aurora, CO

7:46 PM MST on February 11, 2016 (GMT -0700)
Denver | | Change Station
CLOSE
Current Station
Airport
Location: Denver,
Elevation: 5430 ft
Nearby Weather Stations

Elev 5430 ft 39.85 °N, 104.66 °W | Updated 53 minutes ago

Partly Cloudy
Partly Cloudy
40 °F
Feels Like 32 °F
N
14
Wind Variable Wind from SSE

Today
High -- | Low -- °F
--% Chance of Precip.
Yesterday
High -- | Low -- °F
Precip. -- in
Pressure 30.22 in
Visibility 10.0 miles
Clouds Few 11000 ft
Few 15000 ft
Scattered Clouds 22000 ft
Windchill 32 °F
Dew Point 27 °F
Humidity 60%
Rainfall 0.00 in
Snow Depth Not available.
6:56 AM 5:29 PM
Waxing Crescent, 16% visible
METAR KDEN 120153Z 15012KT 10SM FEW110 FEW150 SCT220 04/M03 A3024 RMK AO2 SLP232 T00441028
Pressure 30.22 in
Visibility 10.0 miles
Clouds Few 11000 ft
Few 15000 ft
Scattered Clouds 22000 ft
Windchill 32 °F
Dew Point 27 °F
Humidity 60%
Rainfall 0.00 in
Snow Depth Not available.
6:56 AM 5:29 PM
Waxing Crescent, 16% visible
METAR KDEN 120153Z 15012KT 10SM FEW110 FEW150 SCT220 04/M03 A3024 RMK AO2 SLP232 T00441028

10-Day Weather Forecast

Almanac

Astronomy

Feb. 11, 2016 Rise Set
Actual Time
Civil Twilight
Nautical Twilight
Astronomical Twilight
Moon
Length of Visible Light
Length of Day
Tomorrow will be .
, % of the Moon is Illuminated

Today's Extremes

State Highs State Lows

Community

WunderPhotos

Upload Photos

1,892,226 photos uploaded!

WunderBlog® & News

Nearby

Air Quality

  Air Quality AQ Index Pollutant
Not available.

Snow Depth

Station Depth Elevation

Earthquake Activity

City Distance Mag. Time & Date
Minimum magnitude displayed is 2.5.

Coastal Water Temperatures

Place Temperature

Stations

Nearby Weather Stations

Station Location Temp. Windchill Dew Point Humidity Wind Precip. Elev Updated Type
                   

Watches & Warnings

There are currently no watches in effect.